createdAt,value
2018-11-04T00:00:54.432Z,8.43
2018-11-04T00:03:21.867Z,8.47
2018-11-04T00:05:49.372Z,8.50
2018-11-04T00:08:16.867Z,8.80
2018-11-04T00:10:44.287Z,7.07
2018-11-04T00:13:11.730Z,8.57
2018-11-04T00:15:39.131Z,7.87
2018-11-04T00:18:06.567Z,9.30
2018-11-04T00:20:37.714Z,9.33
2018-11-04T00:23:05.177Z,8.47
2018-11-04T00:25:32.627Z,8.10
2018-11-04T00:28:00.063Z,9.93
2018-11-04T00:30:27.467Z,10.07
2018-11-04T00:32:58.359Z,8.73
2018-11-04T00:35:25.778Z,8.70
2018-11-04T00:37:53.187Z,8.33
2018-11-04T00:40:20.603Z,8.90
2018-11-04T00:42:48.008Z,7.80
2018-11-04T00:45:15.510Z,9.40
2018-11-04T00:47:42.879Z,8.35
2018-11-04T00:50:12.769Z,9.10
2018-11-04T00:52:40.287Z,8.20
2018-11-04T00:55:08.407Z,9.23
2018-11-04T00:57:35.843Z,8.63
2018-11-04T01:00:05.091Z,10.27
2018-11-04T01:02:32.507Z,8.77
2018-11-04T01:04:59.917Z,8.90
2018-11-04T01:07:27.341Z,9.30
2018-11-04T01:09:54.776Z,8.93
2018-11-04T01:12:22.191Z,7.80
2018-11-04T01:14:49.608Z,8.70
2018-11-04T01:17:17.075Z,8.00
2018-11-04T01:19:44.487Z,8.80
2018-11-04T01:22:11.944Z,9.90
2018-11-04T01:24:39.371Z,8.93
2018-11-04T01:27:06.773Z,9.70
2018-11-04T01:29:34.221Z,10.50
2018-11-04T01:32:01.656Z,9.40
2018-11-04T01:34:29.049Z,9.30
2018-11-04T01:36:56.463Z,9.30
2018-11-04T01:39:24.878Z,8.53
2018-11-04T01:41:52.335Z,9.43
2018-11-04T01:44:19.744Z,9.30
2018-11-04T01:46:47.191Z,11.47
2018-11-04T01:49:14.599Z,9.80
2018-11-04T01:51:42.007Z,10.20
2018-11-04T01:54:09.435Z,13.07
2018-11-04T01:56:37.755Z,10.77
2018-11-04T01:59:05.293Z,11.30
2018-11-04T02:01:32.715Z,12.03
2018-11-04T02:04:00.126Z,10.93
2018-11-04T02:06:27.605Z,10.30
2018-11-04T02:08:55.033Z,11.47
2018-11-04T02:11:22.466Z,11.10
2018-11-04T02:13:49.863Z,10.77
2018-11-04T02:16:17.285Z,9.67
2018-11-04T02:18:44.731Z,9.73
2018-11-04T02:21:12.123Z,10.03
2018-11-04T02:23:39.531Z,10.03
2018-11-04T02:26:07.063Z,10.07
2018-11-04T02:28:34.456Z,10.90
2018-11-04T02:31:01.871Z,10.47
2018-11-04T02:33:29.307Z,11.20
2018-11-04T02:35:58.710Z,11.80
2018-11-04T02:38:27.151Z,11.17
2018-11-04T02:40:54.562Z,11.00
2018-11-04T02:43:21.979Z,11.93
2018-11-04T02:45:49.419Z,10.47
2018-11-04T02:48:16.871Z,11.27
2018-11-04T02:50:44.303Z,10.77
2018-11-04T02:53:11.739Z,12.17
2018-11-04T02:55:39.147Z,12.00
2018-11-04T02:58:06.551Z,12.00
2018-11-04T03:00:33.991Z,11.47
2018-11-04T03:03:01.408Z,11.63
2018-11-04T03:05:28.824Z,11.33
2018-11-04T03:07:56.272Z,10.33
2018-11-04T03:10:23.716Z,12.03
2018-11-04T03:12:51.140Z,12.67
2018-11-04T03:15:18.564Z,13.40
2018-11-04T03:17:45.991Z,11.10
2018-11-04T03:20:13.404Z,13.30
2018-11-04T03:22:40.839Z,12.67
2018-11-04T03:25:08.291Z,12.40
2018-11-04T03:27:35.715Z,11.77
2018-11-04T03:30:03.204Z,11.60
2018-11-04T03:32:30.619Z,12.70
2018-11-04T03:34:58.024Z,12.67
2018-11-04T03:37:25.467Z,13.13
2018-11-04T03:39:52.879Z,13.60
2018-11-04T03:42:20.315Z,14.60
2018-11-04T03:44:47.727Z,11.20
2018-11-04T03:47:15.183Z,12.60
2018-11-04T03:49:42.591Z,13.00
2018-11-04T03:52:10.842Z,14.87
2018-11-04T03:54:38.288Z,12.97
2018-11-04T03:57:06.056Z,13.70
2018-11-04T03:59:33.510Z,13.07
2018-11-04T04:02:00.927Z,13.50
2018-11-04T04:04:28.357Z,14.20
2018-11-04T04:06:55.788Z,14.37
2018-11-04T04:09:23.255Z,14.33
2018-11-04T04:11:50.679Z,14.20
2018-11-04T04:14:18.102Z,14.80
2018-11-04T04:16:45.511Z,14.50
2018-11-04T04:19:12.922Z,12.30
2018-11-04T04:21:40.351Z,13.00
2018-11-04T04:24:07.799Z,14.20
2018-11-04T04:26:35.203Z,12.67
2018-11-04T04:29:02.641Z,12.60
2018-11-04T04:31:30.152Z,14.60
2018-11-04T04:33:57.585Z,13.10
2018-11-04T04:36:25.016Z,13.07
2018-11-04T04:38:52.455Z,13.40
2018-11-04T04:41:19.874Z,15.53
2018-11-04T04:43:47.313Z,12.57
2018-11-04T04:46:14.748Z,13.67
2018-11-04T04:48:42.183Z,13.77
2018-11-04T04:51:09.603Z,13.90
2018-11-04T04:53:37.036Z,13.30
2018-11-04T04:56:04.575Z,13.23
2018-11-04T04:58:31.984Z,14.27
2018-11-04T05:00:59.419Z,14.37
2018-11-04T05:03:26.831Z,14.67
2018-11-04T05:05:54.263Z,12.57
2018-11-04T05:08:21.691Z,14.00
2018-11-04T05:10:49.338Z,15.70
2018-11-04T05:13:16.768Z,14.77
2018-11-04T05:15:44.189Z,13.77
2018-11-04T05:18:11.588Z,14.50
2018-11-04T05:20:39.720Z,15.33
2018-11-04T05:23:07.199Z,14.67
2018-11-04T05:25:34.611Z,13.63
2018-11-04T05:28:02.055Z,15.67
2018-11-04T05:30:29.487Z,15.20
2018-11-04T05:32:56.915Z,16.10
2018-11-04T05:35:24.351Z,15.23
2018-11-04T05:37:51.777Z,14.27
2018-11-04T05:40:19.204Z,15.70
2018-11-04T05:42:46.642Z,14.83
2018-11-04T05:45:14.072Z,12.10
2018-11-04T05:47:41.499Z,15.37
2018-11-04T05:50:08.928Z,15.07
2018-11-04T05:52:36.699Z,14.80
2018-11-04T05:55:05.729Z,15.33
2018-11-04T05:57:36.863Z,13.20
2018-11-04T06:00:05.823Z,15.90
2018-11-04T06:02:33.271Z,14.80
2018-11-04T06:05:00.691Z,14.17
2018-11-04T06:07:28.107Z,14.83
2018-11-04T06:09:55.531Z,15.10
2018-11-04T06:12:22.971Z,13.40
2018-11-04T06:14:50.380Z,14.10
2018-11-04T06:17:17.804Z,14.00
2018-11-04T06:19:45.212Z,14.90
2018-11-04T06:22:12.615Z,14.10
2018-11-04T06:24:40.035Z,15.37
2018-11-04T06:27:07.464Z,16.47
2018-11-04T06:29:34.879Z,14.90
2018-11-04T06:32:02.299Z,14.10
2018-11-04T06:34:29.787Z,14.77
2018-11-04T06:36:57.177Z,13.13
2018-11-04T06:39:24.592Z,16.00
2018-11-04T06:41:51.995Z,14.40
2018-11-04T06:44:19.429Z,14.70
2018-11-04T06:46:46.860Z,14.97
2018-11-04T06:49:14.335Z,16.10
2018-11-04T06:51:41.830Z,13.30
2018-11-04T06:54:09.247Z,14.10
2018-11-04T06:56:36.662Z,14.90
2018-11-04T06:59:04.206Z,15.33
2018-11-04T07:01:31.611Z,14.40
2018-11-04T07:04:10.571Z,16.90
2018-11-04T07:06:38.015Z,15.23
2018-11-04T07:09:07.157Z,13.90
2018-11-04T07:11:34.493Z,16.73
2018-11-04T07:14:01.954Z,13.53
2018-11-04T07:16:29.411Z,14.70
2018-11-04T07:18:57.104Z,14.90
2018-11-04T07:21:24.862Z,15.50
2018-11-04T07:23:52.571Z,16.33
2018-11-04T07:26:20.284Z,15.30
2018-11-04T07:28:48.020Z,14.37
2018-11-04T07:31:15.672Z,14.20
2018-11-04T07:33:43.383Z,16.50
2018-11-04T07:36:11.052Z,15.83
2018-11-04T07:38:38.753Z,14.50
2018-11-04T07:41:06.480Z,17.00
2018-11-04T07:43:34.303Z,15.33
2018-11-04T07:46:02.057Z,16.27
2018-11-04T07:48:29.820Z,15.80
2018-11-04T07:50:57.593Z,14.27
2018-11-04T07:53:25.308Z,14.60
2018-11-04T07:55:53.047Z,14.40
2018-11-04T07:58:20.543Z,16.17
2018-11-04T08:00:48.030Z,15.27
2018-11-04T08:03:17.447Z,15.00
2018-11-04T08:05:44.871Z,16.40
2018-11-04T08:08:12.301Z,18.07
2018-11-04T08:10:39.700Z,14.90
2018-11-04T08:13:07.157Z,17.47
2018-11-04T08:15:34.591Z,16.93
2018-11-04T08:18:02.010Z,15.63
2018-11-04T08:20:29.467Z,15.93
2018-11-04T08:22:56.928Z,15.70
2018-11-04T08:25:24.363Z,14.00
2018-11-04T08:27:51.879Z,17.83
2018-11-04T08:30:19.506Z,18.20
2018-11-04T08:32:46.979Z,15.37
2018-11-04T08:35:14.417Z,16.80
2018-11-04T08:37:41.847Z,16.50
2018-11-04T08:40:09.407Z,13.97
2018-11-04T08:42:36.719Z,16.77
2018-11-04T08:45:05.291Z,14.90
2018-11-04T08:47:32.732Z,15.07
2018-11-04T08:50:00.184Z,17.77
2018-11-04T08:52:27.736Z,16.87
2018-11-04T08:54:55.108Z,16.10
2018-11-04T08:57:22.548Z,16.97
2018-11-04T08:59:50.017Z,16.53
2018-11-04T09:02:17.415Z,16.00
2018-11-04T09:04:44.847Z,15.43
2018-11-04T09:07:12.279Z,17.27
2018-11-04T09:09:39.683Z,16.00
2018-11-04T09:12:07.128Z,16.53
2018-11-04T09:14:34.555Z,15.80
2018-11-04T09:17:02.029Z,15.20
2018-11-04T09:19:29.455Z,18.50
2018-11-04T09:21:57.102Z,16.37
2018-11-04T09:24:24.312Z,14.70
2018-11-04T09:26:51.772Z,17.27
2018-11-04T09:29:19.332Z,17.40
2018-11-04T09:31:51.891Z,17.30
2018-11-04T09:34:19.588Z,15.77
2018-11-04T09:36:47.306Z,17.60
2018-11-04T09:39:15.032Z,16.60
2018-11-04T09:41:43.234Z,17.00
2018-11-04T09:44:11.080Z,16.20
2018-11-04T09:46:38.844Z,16.33
2018-11-04T09:49:07.292Z,17.23
2018-11-04T09:51:35.204Z,15.53
2018-11-04T09:54:03.360Z,17.47
2018-11-04T09:56:35.433Z,16.17
2018-11-04T09:59:05.089Z,16.50
2018-11-04T10:01:32.820Z,12.80
2018-11-04T10:04:00.800Z,16.70
2018-11-04T10:06:28.457Z,16.63
2018-11-04T10:08:56.265Z,14.50
2018-11-04T10:11:24.328Z,17.47
2018-11-04T10:13:52.062Z,15.57
2018-11-04T10:16:19.881Z,15.77
2018-11-04T10:18:48.781Z,15.40
2018-11-04T10:21:22.274Z,17.97
2018-11-04T10:23:50.088Z,15.40
2018-11-04T10:26:17.760Z,16.52
2018-11-04T10:28:47.504Z,15.30
2018-11-04T10:31:18.676Z,16.43
2018-11-04T10:33:47.869Z,15.20
2018-11-04T10:36:15.759Z,15.67
2018-11-04T10:38:43.678Z,16.57
2018-11-04T10:41:14.262Z,16.53
2018-11-04T10:43:42.276Z,15.30
2018-11-04T10:46:11.196Z,15.60
2018-11-04T10:48:39.024Z,15.37
2018-11-04T10:51:06.934Z,16.00
2018-11-04T10:53:34.676Z,15.97
2018-11-04T10:56:02.470Z,15.53
2018-11-04T10:58:30.214Z,19.70
2018-11-04T11:01:03.501Z,16.37
2018-11-04T11:03:33.440Z,16.43
2018-11-04T11:06:01.453Z,15.00
2018-11-04T11:08:29.327Z,17.47
2018-11-04T11:10:57.195Z,15.10
2018-11-04T11:13:24.872Z,14.03
2018-11-04T11:15:52.688Z,17.00
2018-11-04T11:18:20.441Z,14.80
2018-11-04T11:20:48.229Z,14.27
2018-11-04T11:23:16.021Z,14.00
2018-11-04T11:25:43.603Z,15.13
2018-11-04T11:28:11.329Z,16.67
2018-11-04T11:30:39.953Z,14.73
2018-11-04T11:33:08.437Z,13.90
2018-11-04T11:35:36.370Z,15.70
2018-11-04T11:38:04.443Z,14.80
2018-11-04T11:40:33.113Z,15.03
2018-11-04T11:43:00.817Z,14.33
2018-11-04T11:45:28.576Z,15.90
2018-11-04T11:47:56.272Z,14.10
2018-11-04T11:50:23.976Z,16.73
2018-11-04T11:52:51.788Z,16.50
2018-11-04T11:55:19.564Z,16.10
2018-11-04T11:57:47.281Z,16.43
2018-11-04T12:00:14.936Z,15.60
2018-11-04T12:02:42.681Z,14.37
2018-11-04T12:05:10.472Z,14.40
2018-11-04T12:07:38.436Z,13.00
2018-11-04T12:10:08.456Z,12.43
2018-11-04T12:12:36.280Z,13.40
2018-11-04T12:15:04.689Z,16.20
2018-11-04T12:17:32.371Z,14.53
2018-11-04T12:20:00.109Z,14.80
2018-11-04T12:22:27.727Z,12.70
2018-11-04T12:24:55.445Z,15.00
2018-11-04T12:27:28.222Z,12.67
2018-11-04T12:29:56.244Z,13.13
2018-11-04T12:32:23.960Z,14.23
2018-11-04T12:34:51.725Z,14.40
2018-11-04T12:37:19.428Z,14.10
2018-11-04T12:39:47.152Z,12.67
2018-11-04T12:42:14.912Z,13.10
2018-11-04T12:44:42.673Z,12.13
2018-11-04T12:47:10.404Z,14.60
2018-11-04T12:49:38.104Z,12.80
2018-11-04T12:52:06.590Z,13.13
2018-11-04T12:54:34.576Z,13.33
2018-11-04T12:57:02.259Z,13.10
2018-11-04T12:59:29.972Z,13.10
2018-11-04T13:01:57.752Z,12.67
2018-11-04T13:04:25.393Z,12.90
2018-11-04T13:06:53.095Z,14.60
2018-11-04T13:09:22.933Z,13.07
2018-11-04T13:11:51.658Z,12.40
2018-11-04T13:14:19.477Z,13.60
2018-11-04T13:16:47.199Z,14.37
2018-11-04T13:19:14.903Z,13.17
2018-11-04T13:21:42.644Z,13.77
2018-11-04T13:24:10.439Z,13.77
2018-11-04T13:26:38.197Z,12.27
2018-11-04T13:29:05.934Z,13.17
2018-11-04T13:31:33.677Z,13.73
2018-11-04T13:34:01.408Z,13.50
2018-11-04T13:36:29.153Z,13.53
2018-11-04T13:38:56.844Z,11.63
2018-11-04T13:41:24.536Z,10.47
2018-11-04T13:43:52.284Z,12.20
2018-11-04T13:46:19.988Z,11.83
2018-11-04T13:48:47.776Z,12.13
2018-11-04T13:51:15.531Z,11.77
2018-11-04T13:53:43.228Z,11.73
2018-11-04T13:56:11.082Z,11.90
2018-11-04T13:58:38.790Z,10.27
2018-11-04T14:01:09.651Z,11.90
2018-11-04T14:03:37.324Z,11.90
2018-11-04T14:06:05.148Z,10.97
2018-11-04T14:08:32.872Z,10.77
2018-11-04T14:11:00.756Z,11.67
2018-11-04T14:13:28.606Z,11.50
2018-11-04T14:15:56.248Z,12.57
2018-11-04T14:18:23.966Z,11.97
2018-11-04T14:20:51.636Z,12.70
2018-11-04T14:23:19.312Z,11.53
2018-11-04T14:25:50.791Z,11.20
2018-11-04T14:28:18.485Z,12.13
2018-11-04T14:30:46.207Z,12.20
2018-11-04T14:33:13.930Z,12.27
2018-11-04T14:35:41.647Z,12.97
2018-11-04T14:38:09.252Z,10.80
2018-11-04T14:40:38.145Z,11.67
2018-11-04T14:43:06.076Z,11.37
2018-11-04T14:45:33.766Z,11.87
2018-11-04T14:48:01.484Z,11.67
2018-11-04T14:50:29.188Z,11.97
2018-11-04T14:52:56.933Z,9.30
2018-11-04T14:55:24.639Z,10.97
2018-11-04T14:57:52.353Z,10.90
2018-11-04T15:00:20.036Z,10.13
2018-11-04T15:02:47.793Z,12.03
2018-11-04T15:05:16.593Z,11.33
2018-11-04T15:07:44.268Z,11.70
2018-11-04T15:10:12.893Z,11.37
2018-11-04T15:12:40.664Z,11.07
2018-11-04T15:15:11.184Z,10.57
2018-11-04T15:17:39.180Z,10.70
2018-11-04T15:20:07.736Z,10.73
2018-11-04T15:22:38.644Z,10.87
2018-11-04T15:25:06.440Z,11.63
2018-11-04T15:27:34.169Z,11.13
2018-11-04T15:30:01.847Z,13.17
2018-11-04T15:32:29.633Z,10.73
2018-11-04T15:34:57.320Z,11.30
2018-11-04T15:37:25.036Z,11.10
2018-11-04T15:39:52.712Z,11.53
2018-11-04T15:42:20.448Z,12.30
2018-11-04T15:44:51.709Z,12.07
2018-11-04T15:47:19.458Z,11.87
2018-11-04T15:49:47.173Z,10.73
2018-11-04T15:52:14.916Z,10.60
2018-11-04T15:54:43.613Z,9.83
2018-11-04T15:57:14.863Z,12.03
2018-11-04T15:59:42.923Z,8.40
2018-11-04T16:02:10.716Z,10.40
2018-11-04T16:04:44.547Z,9.00
2018-11-04T16:07:06.300Z,10.17
2018-11-04T16:09:34.308Z,11.70
2018-11-04T16:12:01.992Z,9.30
2018-11-04T16:14:29.842Z,8.90
2018-11-04T16:16:57.686Z,8.70
2018-11-04T16:19:25.457Z,8.83
2018-11-04T16:21:53.176Z,9.13
2018-11-04T16:24:20.918Z,9.33
2018-11-04T16:26:48.645Z,8.03
2018-11-04T16:29:16.560Z,8.50
2018-11-04T16:31:44.294Z,9.10
2018-11-04T16:34:12.398Z,9.23
2018-11-04T16:36:40.959Z,9.10
2018-11-04T16:39:09.412Z,7.50
2018-11-04T16:41:37.220Z,8.33
2018-11-04T16:44:05.350Z,8.57
2018-11-04T16:46:32.974Z,8.93
2018-11-04T16:49:01.328Z,8.50
2018-11-04T16:51:29.948Z,9.63
2018-11-04T16:53:58.188Z,8.17
2018-11-04T16:56:28.304Z,8.43
2018-11-04T16:58:56.426Z,9.10
2018-11-04T17:01:24.730Z,9.00
2018-11-04T17:03:52.735Z,9.40
2018-11-04T17:06:20.365Z,9.20
2018-11-04T17:08:48.945Z,8.40
2018-11-04T17:11:16.696Z,17.50
2018-11-04T17:13:44.673Z,11.20
2018-11-04T17:16:12.605Z,45.50
2018-11-04T17:18:40.388Z,14.33
2018-11-04T17:21:08.072Z,9.47
2018-11-04T17:23:35.703Z,12.20
2018-11-04T17:26:03.468Z,9.47
2018-11-04T17:28:31.261Z,11.85
2018-11-04T17:30:58.948Z,8.87
2018-11-04T17:33:30.426Z,9.97
2018-11-04T17:35:58.194Z,10.70
2018-11-04T17:38:25.892Z,9.87
2018-11-04T17:40:53.595Z,9.23
2018-11-04T17:43:21.328Z,8.30
2018-11-04T17:45:49.014Z,8.33
2018-11-04T17:48:16.678Z,7.97
2018-11-04T17:50:44.420Z,8.60
2018-11-04T17:53:12.086Z,7.80
2018-11-04T17:55:39.789Z,9.63
2018-11-04T17:58:07.526Z,9.10
2018-11-04T18:00:35.279Z,8.70
2018-11-04T18:03:02.970Z,6.93
2018-11-04T18:05:33.501Z,7.20
2018-11-04T18:08:01.169Z,7.07
2018-11-04T18:10:28.648Z,6.77
2018-11-04T18:12:56.270Z,7.70
2018-11-04T18:15:23.812Z,7.30
2018-11-04T18:17:51.442Z,6.83
2018-11-04T18:20:19.151Z,7.13
2018-11-04T18:22:46.994Z,7.07
2018-11-04T18:25:14.665Z,7.10
2018-11-04T18:27:42.285Z,6.97
2018-11-04T18:30:12.234Z,6.43
2018-11-04T18:32:39.750Z,6.33
2018-11-04T18:35:07.639Z,5.10
2018-11-04T18:37:35.467Z,6.53
2018-11-04T18:40:03.296Z,7.73
2018-11-04T18:42:30.777Z,6.53
2018-11-04T18:44:58.273Z,7.00
2018-11-04T18:47:29.564Z,6.40
2018-11-04T18:49:57.129Z,6.80
2018-11-04T18:52:25.218Z,7.20
2018-11-04T18:54:52.731Z,5.93
2018-11-04T18:57:20.799Z,6.67
2018-11-04T18:59:52.135Z,7.87
2018-11-04T19:02:20.108Z,6.43
2018-11-04T19:04:51.204Z,5.80
2018-11-04T19:07:22.863Z,5.83
2018-11-04T19:09:50.350Z,6.73
2018-11-04T19:12:17.899Z,7.17
2018-11-04T19:14:45.816Z,7.77
2018-11-04T19:17:13.283Z,6.80
2018-11-04T19:19:40.885Z,7.87
2018-11-04T19:22:12.179Z,7.87
2018-11-04T19:24:41.320Z,7.33
2018-11-04T19:27:09.343Z,8.60
2018-11-04T19:29:37.889Z,8.30
2018-11-04T19:32:06.139Z,8.83
2018-11-04T19:34:34.496Z,8.13
2018-11-04T19:37:03.240Z,8.30
2018-11-04T19:39:32.967Z,7.67
2018-11-04T19:42:02.051Z,7.13
2018-11-04T19:44:30.578Z,6.53
2018-11-04T19:46:59.216Z,8.00
2018-11-04T19:49:46.399Z,8.03
2018-11-04T19:52:14.710Z,8.70
2018-11-04T19:54:42.499Z,7.73
2018-11-04T19:57:10.150Z,8.60
2018-11-04T19:59:37.889Z,7.30
2018-11-04T20:02:06.385Z,8.20
2018-11-04T20:04:34.300Z,7.90
2018-11-04T20:07:01.894Z,8.53
2018-11-04T20:09:29.404Z,8.97
2018-11-04T20:11:56.831Z,9.70
2018-11-04T20:14:28.269Z,7.70
2018-11-04T20:16:56.057Z,10.30
2018-11-04T20:19:29.836Z,8.93
2018-11-04T20:21:57.843Z,7.73
2018-11-04T20:24:31.981Z,8.97
2018-11-04T20:26:59.958Z,9.33
2018-11-04T20:29:28.468Z,9.50
2018-11-04T20:32:02.460Z,9.50
2018-11-04T20:34:31.023Z,8.03
2018-11-04T20:36:59.041Z,9.20
2018-11-04T20:39:32.899Z,7.70
2018-11-04T20:42:01.689Z,7.47
2018-11-04T20:44:29.804Z,6.73
2018-11-04T20:46:57.951Z,7.93
2018-11-04T20:49:31.442Z,6.50
2018-11-04T20:51:59.076Z,7.03
2018-11-04T20:54:26.647Z,6.27
2018-11-04T20:56:59.892Z,6.60
2018-11-04T20:59:27.353Z,7.50
2018-11-04T21:01:54.833Z,7.63
2018-11-04T21:04:22.231Z,6.93
2018-11-04T21:06:49.672Z,8.10
2018-11-04T21:09:17.078Z,7.30
2018-11-04T21:11:44.503Z,6.73
2018-11-04T21:14:11.933Z,8.03
2018-11-04T21:16:39.530Z,8.17
2018-11-04T21:19:06.913Z,8.80
2018-11-04T21:21:34.373Z,8.53
2018-11-04T21:24:01.796Z,7.13
2018-11-04T21:26:29.221Z,8.10
2018-11-04T21:28:56.961Z,8.80
2018-11-04T21:31:24.569Z,9.93
2018-11-04T21:33:53.931Z,9.03
2018-11-04T21:36:24.804Z,9.20
2018-11-04T21:38:57.932Z,8.63
2018-11-04T21:41:25.371Z,9.37
2018-11-04T21:43:53.100Z,9.83
2018-11-04T21:46:20.183Z,9.20
2018-11-04T21:48:47.604Z,7.90
2018-11-04T21:51:15.348Z,9.60
2018-11-04T21:53:42.911Z,9.00
2018-11-04T21:56:10.430Z,8.80
2018-11-04T21:58:37.807Z,10.13
2018-11-04T22:01:05.425Z,8.60
2018-11-04T22:03:33.938Z,8.83
2018-11-04T22:06:01.283Z,8.60
2018-11-04T22:08:28.679Z,10.30
2018-11-04T22:10:56.087Z,7.40
2018-11-04T22:13:23.492Z,8.20
2018-11-04T22:15:50.928Z,8.93
2018-11-04T22:18:19.412Z,8.17
2018-11-04T22:20:46.844Z,9.23
2018-11-04T22:23:14.268Z,9.50
2018-11-04T22:25:41.728Z,8.77
2018-11-04T22:28:09.159Z,8.50
2018-11-04T22:30:36.575Z,8.63
2018-11-04T22:33:04.028Z,9.60
2018-11-04T22:35:31.739Z,9.23
2018-11-04T22:37:59.179Z,7.43
2018-11-04T22:40:26.583Z,8.87
2018-11-04T22:42:54.040Z,9.87
2018-11-04T22:45:21.397Z,10.27
2018-11-04T22:47:48.811Z,8.97
2018-11-04T22:50:16.202Z,8.40
2018-11-04T22:52:43.912Z,8.27
2018-11-04T22:55:12.111Z,9.37
2018-11-04T22:57:39.521Z,8.23
2018-11-04T23:00:13.367Z,8.50
2018-11-04T23:02:40.847Z,9.13
2018-11-04T23:05:13.864Z,8.03
2018-11-04T23:07:41.267Z,8.13
2018-11-04T23:10:12.376Z,8.63
2018-11-04T23:12:39.815Z,8.53
2018-11-04T23:15:07.235Z,8.60
2018-11-04T23:17:34.626Z,9.20
2018-11-04T23:20:02.102Z,9.40
2018-11-04T23:22:29.523Z,9.50
2018-11-04T23:24:57.011Z,11.70
2018-11-04T23:27:24.408Z,8.27
2018-11-04T23:29:51.806Z,9.23
2018-11-04T23:32:19.204Z,10.10
2018-11-04T23:34:46.619Z,8.87
2018-11-04T23:37:14.026Z,9.43
2018-11-04T23:39:41.415Z,9.90
2018-11-04T23:42:08.840Z,10.23
2018-11-04T23:44:36.247Z,9.30
2018-11-04T23:47:03.998Z,11.10
2018-11-04T23:49:31.391Z,9.33
2018-11-04T23:51:58.796Z,8.57
2018-11-04T23:54:26.207Z,9.27
2018-11-04T23:56:53.587Z,8.53
2018-11-04T23:59:20.983Z,9.07
